createdAt,value
2018-05-11T00:00:11.471Z,8.70
2018-05-11T00:01:11.437Z,8.90
2018-05-11T00:02:11.425Z,8.30
2018-05-11T00:03:11.404Z,9.00
2018-05-11T00:04:11.390Z,8.90
2018-05-11T00:05:11.377Z,8.60
2018-05-11T00:06:11.372Z,8.70
2018-05-11T00:07:11.344Z,9.50
2018-05-11T00:08:11.328Z,9.30
2018-05-11T00:09:11.310Z,9.00
2018-05-11T00:10:11.296Z,8.90
2018-05-11T00:11:11.285Z,8.70
2018-05-11T00:12:11.301Z,8.90
2018-05-11T00:13:11.246Z,9.00
2018-05-11T00:14:11.235Z,8.60
2018-05-11T00:15:11.218Z,8.10
2018-05-11T00:16:11.203Z,8.90
2018-05-11T00:17:11.188Z,8.10
2018-05-11T00:18:11.187Z,9.00
2018-05-11T00:19:11.157Z,8.80
2018-05-11T00:20:11.142Z,8.90
2018-05-11T00:21:11.131Z,9.30
2018-05-11T00:22:11.126Z,8.90
2018-05-11T00:23:11.092Z,9.20
2018-05-11T00:24:11.083Z,9.20
2018-05-11T00:25:11.059Z,9.10
2018-05-11T00:26:11.049Z,9.40
2018-05-11T00:27:11.032Z,8.60
2018-05-11T00:28:11.034Z,8.90
2018-05-11T00:29:11.016Z,9.10
2018-05-11T00:30:10.980Z,9.40
2018-05-11T00:31:10.968Z,9.20
2018-05-11T00:32:10.953Z,9.20
2018-05-11T00:33:10.935Z,9.10
2018-05-11T00:34:10.942Z,9.10
2018-05-11T00:35:10.901Z,9.20
2018-05-11T00:36:10.890Z,9.00
2018-05-11T00:37:10.876Z,9.10
2018-05-11T00:38:10.869Z,9.10
2018-05-11T00:39:10.840Z,9.40
2018-05-11T00:40:10.845Z,9.50
2018-05-11T00:41:10.810Z,9.20
2018-05-11T00:42:10.796Z,9.30
2018-05-11T00:43:10.776Z,9.30
2018-05-11T00:44:10.763Z,8.90
2018-05-11T00:45:10.747Z,9.30
2018-05-11T00:46:10.748Z,9.10
2018-05-11T00:47:10.717Z,9.30
2018-05-11T00:48:10.698Z,9.30
2018-05-11T00:49:10.682Z,9.20
2018-05-11T00:50:10.671Z,9.50
2018-05-11T00:51:10.747Z,9.20
2018-05-11T00:52:10.653Z,9.00
2018-05-11T00:53:10.617Z,9.30
2018-05-11T00:54:10.609Z,9.20
2018-05-11T00:55:10.588Z,9.70
2018-05-11T00:56:10.588Z,9.20
2018-05-11T00:57:10.571Z,9.00
2018-05-11T00:58:10.539Z,8.80
2018-05-11T00:59:10.521Z,9.30
2018-05-11T01:00:10.511Z,9.10
2018-05-11T01:01:10.509Z,9.10
2018-05-11T01:02:10.476Z,9.10
2018-05-11T01:03:10.459Z,9.10
2018-05-11T01:04:10.442Z,9.20
2018-05-11T01:05:10.425Z,9.10
2018-05-11T01:06:10.416Z,9.10
2018-05-11T01:07:10.413Z,9.00
2018-05-11T01:08:10.377Z,9.10
2018-05-11T01:09:10.361Z,8.90
2018-05-11T01:10:10.351Z,8.70
2018-05-11T01:11:10.352Z,9.20
2018-05-11T01:12:10.319Z,9.60
2018-05-11T01:13:10.304Z,8.80
2018-05-11T01:14:10.284Z,8.80
2018-05-11T01:15:10.272Z,9.20
2018-05-11T01:16:10.252Z,9.30
2018-05-11T01:17:10.255Z,9.30
2018-05-11T01:18:10.222Z,9.40
2018-05-11T01:19:10.204Z,9.10
2018-05-11T01:20:10.189Z,8.90
2018-05-11T01:21:10.188Z,8.90
2018-05-11T01:22:10.156Z,8.80
2018-05-11T01:23:10.142Z,9.30
2018-05-11T01:24:10.129Z,9.70
2018-05-11T01:25:10.108Z,9.50
2018-05-11T01:26:10.106Z,10.00
2018-05-11T01:27:10.090Z,9.00
2018-05-11T01:28:10.062Z,9.40
2018-05-11T01:29:10.063Z,9.20
2018-05-11T01:30:10.028Z,9.20
2018-05-11T01:31:10.014Z,9.20
2018-05-11T01:32:09.998Z,9.20
2018-05-11T01:33:09.995Z,9.20
2018-05-11T01:34:10.018Z,9.40
2018-05-11T01:35:09.953Z,9.30
2018-05-11T01:36:09.935Z,9.30
2018-05-11T01:37:09.916Z,9.70
2018-05-11T01:38:09.918Z,9.50
2018-05-11T01:39:09.885Z,9.20
2018-05-11T01:40:09.868Z,9.30
2018-05-11T01:41:09.852Z,9.60
2018-05-11T01:42:09.840Z,9.40
2018-05-11T01:43:09.835Z,9.20
2018-05-11T01:44:09.805Z,9.10
2018-05-11T01:45:09.801Z,9.50
2018-05-11T01:46:09.770Z,9.20
2018-05-11T01:47:09.756Z,9.50
2018-05-11T01:48:09.740Z,9.50
2018-05-11T01:49:09.736Z,9.30
2018-05-11T01:50:09.707Z,10.10
2018-05-11T01:51:09.705Z,9.70
2018-05-11T01:52:09.673Z,9.40
2018-05-11T01:53:09.658Z,9.80
2018-05-11T01:54:09.643Z,9.90
2018-05-11T01:55:09.646Z,9.70
2018-05-11T01:56:09.610Z,10.20
2018-05-11T01:57:09.592Z,10.50
2018-05-11T01:58:09.578Z,10.30
2018-05-11T01:59:09.560Z,10.10
2018-05-11T02:00:09.548Z,10.10
2018-05-11T02:01:09.543Z,10.20
2018-05-11T02:02:09.527Z,10.20
2018-05-11T02:03:09.498Z,10.10
2018-05-11T02:04:09.481Z,10.60
2018-05-11T02:05:09.468Z,10.70
2018-05-11T02:06:09.464Z,10.80
2018-05-11T02:07:09.433Z,10.90
2018-05-11T02:08:09.415Z,10.60
2018-05-11T02:09:09.401Z,10.80
2018-05-11T02:10:09.383Z,10.80
2018-05-11T02:11:09.385Z,10.80
2018-05-11T02:12:09.352Z,10.60
2018-05-11T02:13:09.335Z,11.30
2018-05-11T02:14:09.333Z,11.10
2018-05-11T02:15:09.303Z,10.60
2018-05-11T02:16:09.285Z,10.90
2018-05-11T02:17:09.268Z,11.40
2018-05-11T02:18:09.267Z,11.00
2018-05-11T02:19:09.239Z,10.90
2018-05-11T02:20:09.223Z,11.50
2018-05-11T02:21:09.220Z,11.00
2018-05-11T02:22:09.188Z,11.30
2018-05-11T02:23:09.172Z,11.50
2018-05-11T02:24:09.174Z,11.00
2018-05-11T02:25:09.157Z,11.20
2018-05-11T02:26:09.123Z,11.80
2018-05-11T02:27:09.106Z,11.80
2018-05-11T02:28:09.092Z,10.80
2018-05-11T02:29:09.077Z,11.20
2018-05-11T02:30:09.075Z,10.70
2018-05-11T02:31:09.040Z,10.70
2018-05-11T02:32:09.028Z,11.00
2018-05-11T02:33:09.009Z,9.70
2018-05-11T02:34:08.993Z,10.00
2018-05-11T02:35:08.973Z,10.50
2018-05-11T02:36:08.974Z,11.30
2018-05-11T02:37:08.965Z,10.70
2018-05-11T02:38:08.927Z,11.00
2018-05-11T02:39:08.914Z,12.00
2018-05-11T02:40:08.912Z,12.20
2018-05-11T02:41:08.878Z,11.70
2018-05-11T02:42:08.868Z,11.70
2018-05-11T02:43:08.862Z,11.90
2018-05-11T02:44:08.832Z,12.10
2018-05-11T02:45:08.813Z,12.10
2018-05-11T02:46:08.810Z,12.20
2018-05-11T02:47:08.797Z,10.80
2018-05-11T02:48:08.768Z,10.60
2018-05-11T02:49:08.747Z,10.60
2018-05-11T02:50:08.737Z,10.60
2018-05-11T02:51:08.718Z,10.50
2018-05-11T02:52:08.713Z,10.70
2018-05-11T02:54:40.709Z,11.00
2018-05-11T02:55:40.674Z,10.90
2018-05-11T02:56:40.658Z,11.50
2018-05-11T02:57:40.643Z,12.00
2018-05-11T02:58:40.622Z,11.90
2018-05-11T02:59:40.622Z,12.20
2018-05-11T03:00:40.594Z,11.90
2018-05-11T03:01:40.574Z,12.10
2018-05-11T03:02:40.553Z,12.20
2018-05-11T03:03:40.537Z,12.00
2018-05-11T03:04:40.543Z,12.40
2018-05-11T03:05:40.510Z,12.30
2018-05-11T03:06:40.492Z,11.60
2018-05-11T03:07:40.479Z,11.10
2018-05-11T03:08:40.464Z,11.60
2018-05-11T03:09:40.494Z,11.40
2018-05-11T03:10:40.440Z,11.40
2018-05-11T03:11:40.406Z,11.10
2018-05-11T03:12:40.397Z,11.10
2018-05-11T03:13:40.377Z,11.20
2018-05-11T03:14:40.395Z,10.70
2018-05-11T03:15:40.344Z,10.40
2018-05-11T03:16:40.329Z,10.80
2018-05-11T03:17:40.311Z,11.20
2018-05-11T03:18:40.344Z,11.20
2018-05-11T03:19:40.276Z,12.00
2018-05-11T03:20:40.277Z,11.90
2018-05-11T03:21:40.261Z,12.10
2018-05-11T03:22:40.237Z,12.80
2018-05-11T03:23:40.212Z,12.50
2018-05-11T03:24:40.205Z,12.60
2018-05-11T03:25:40.183Z,12.00
2018-05-11T03:27:01.176Z,12.70
2018-05-11T03:27:40.152Z,12.30
2018-05-11T03:28:40.133Z,12.40
2018-05-11T03:29:40.116Z,12.50
2018-05-11T03:30:40.104Z,12.40
2018-05-11T03:31:40.085Z,11.80
2018-05-11T03:32:40.080Z,11.50
2018-05-11T03:33:40.053Z,11.80
2018-05-11T03:34:40.034Z,11.10
2018-05-11T03:35:40.020Z,11.40
2018-05-11T03:36:40.007Z,11.90
2018-05-11T03:37:40.004Z,12.30
2018-05-11T03:38:39.976Z,12.30
2018-05-11T03:39:39.953Z,12.40
2018-05-11T03:40:39.940Z,12.70
2018-05-11T03:41:39.924Z,13.00
2018-05-11T03:42:39.907Z,12.60
2018-05-11T03:43:39.900Z,12.70
2018-05-11T03:44:39.876Z,12.90
2018-05-11T03:45:39.860Z,13.00
2018-05-11T03:46:39.912Z,12.50
2018-05-11T03:47:39.825Z,13.30
2018-05-11T03:48:39.824Z,13.50
2018-05-11T03:49:39.793Z,13.40
2018-05-11T03:50:39.777Z,13.70
2018-05-11T03:51:39.760Z,13.90
2018-05-11T03:52:39.745Z,13.40
2018-05-11T03:53:39.748Z,13.40
2018-05-11T03:54:39.713Z,13.50
2018-05-11T03:55:39.697Z,14.10
2018-05-11T03:56:39.675Z,13.40
2018-05-11T03:57:39.658Z,13.40
2018-05-11T03:58:39.647Z,12.80
2018-05-11T03:59:39.646Z,13.00
2018-05-11T04:00:39.612Z,12.50
2018-05-11T04:01:39.598Z,13.00
2018-05-11T04:02:39.580Z,13.00
2018-05-11T04:03:39.565Z,12.80
2018-05-11T04:04:39.562Z,13.30
2018-05-11T04:05:39.550Z,13.90
2018-05-11T04:06:39.516Z,14.00
2018-05-11T04:07:39.501Z,13.80
2018-05-11T04:08:39.483Z,13.40
2018-05-11T04:09:39.468Z,14.10
2018-05-11T04:10:39.466Z,14.10
2018-05-11T04:11:39.436Z,13.90
2018-05-11T04:12:39.419Z,13.80
2018-05-11T04:13:39.403Z,13.60
2018-05-11T04:14:39.407Z,13.90
2018-05-11T04:15:39.372Z,13.80
2018-05-11T04:16:39.353Z,13.80
2018-05-11T04:17:39.341Z,14.00
2018-05-11T04:18:39.318Z,13.60
2018-05-11T04:19:39.309Z,13.40
2018-05-11T04:20:39.392Z,13.80
2018-05-11T04:21:39.272Z,13.40
2018-05-11T04:22:39.257Z,13.50
2018-05-11T04:23:39.241Z,13.70
2018-05-11T04:24:39.231Z,13.70
2018-05-11T04:25:39.222Z,13.80
2018-05-11T04:26:39.206Z,13.90
2018-05-11T04:27:39.177Z,13.60
2018-05-11T04:28:39.164Z,13.50
2018-05-11T04:29:39.144Z,13.20
2018-05-11T04:30:39.129Z,13.10
2018-05-11T04:31:39.129Z,13.40
2018-05-11T04:32:39.096Z,13.30
2018-05-11T04:33:39.075Z,13.70
2018-05-11T04:34:39.065Z,13.50
2018-05-11T04:35:39.047Z,13.90
2018-05-11T04:36:39.046Z,13.40
2018-05-11T04:37:39.015Z,13.70
2018-05-11T04:38:39.004Z,13.40
2018-05-11T04:39:38.983Z,13.90
2018-05-11T04:40:38.987Z,14.10
2018-05-11T04:41:38.956Z,13.80
2018-05-11T04:42:38.936Z,13.70
2018-05-11T04:43:38.920Z,13.30
2018-05-11T04:44:38.905Z,13.40
2018-05-11T04:45:38.888Z,12.90
2018-05-11T04:46:38.885Z,13.20
2018-05-11T04:47:38.856Z,13.80
2018-05-11T04:48:38.842Z,13.80
2018-05-11T04:49:38.824Z,13.50
2018-05-11T04:50:38.826Z,13.80
2018-05-11T04:51:38.791Z,13.50
2018-05-11T04:52:38.779Z,13.60
2018-05-11T04:53:38.758Z,13.80
2018-05-11T04:54:38.762Z,13.30
2018-05-11T04:55:38.730Z,13.80
2018-05-11T04:56:38.711Z,14.10
2018-05-11T04:57:38.698Z,13.80
2018-05-11T04:58:38.682Z,13.60
2018-05-11T04:59:38.672Z,13.90
2018-05-11T05:00:38.670Z,13.00
2018-05-11T05:01:38.655Z,13.30
2018-05-11T05:02:38.616Z,13.30
2018-05-11T05:03:38.602Z,13.30
2018-05-11T05:04:38.582Z,13.50
2018-05-11T05:05:38.571Z,12.90
2018-05-11T05:06:38.556Z,13.30
2018-05-11T05:07:38.553Z,13.20
2018-05-11T05:08:38.537Z,13.10
2018-05-11T05:09:38.506Z,13.20
2018-05-11T05:10:38.493Z,13.10
2018-05-11T05:11:38.475Z,12.90
2018-05-11T05:12:38.462Z,12.50
2018-05-11T05:13:38.462Z,12.80
2018-05-11T05:14:38.430Z,13.00
2018-05-11T05:15:38.414Z,13.50
2018-05-11T05:16:38.397Z,12.90
2018-05-11T05:17:38.383Z,13.30
2018-05-11T05:18:38.381Z,12.80
2018-05-11T05:19:38.368Z,12.80
2018-05-11T05:20:38.331Z,12.80
2018-05-11T05:21:38.323Z,13.20
2018-05-11T05:22:38.301Z,13.20
2018-05-11T05:23:59.297Z,13.10
2018-05-11T05:24:38.274Z,12.90
2018-05-11T05:25:38.259Z,13.50
2018-05-11T05:26:38.243Z,12.90
2018-05-11T05:27:38.226Z,13.30
2018-05-11T05:28:38.215Z,13.40
2018-05-11T05:29:38.217Z,13.50
2018-05-11T05:30:38.181Z,13.50
2018-05-11T05:31:38.167Z,14.00
2018-05-11T05:32:38.151Z,14.30
2018-05-11T05:33:38.131Z,14.20
2018-05-11T05:34:38.119Z,14.30
2018-05-11T05:35:38.117Z,14.50
2018-05-11T05:36:38.089Z,14.10
2018-05-11T05:37:38.076Z,14.00
2018-05-11T05:38:38.060Z,14.70
2018-05-11T05:39:38.043Z,14.00
2018-05-11T05:40:38.042Z,14.10
2018-05-11T05:41:38.030Z,14.40
2018-05-11T05:42:38.003Z,14.50
2018-05-11T05:43:37.982Z,14.80
2018-05-11T05:44:37.967Z,15.50
2018-05-11T05:45:37.961Z,14.80
2018-05-11T05:46:37.954Z,15.30
2018-05-11T05:47:37.925Z,14.80
2018-05-11T05:48:37.907Z,15.50
2018-05-11T05:49:37.895Z,15.00
2018-05-11T05:50:37.876Z,15.40
2018-05-11T05:51:37.877Z,15.80
2018-05-11T05:52:37.860Z,15.50
2018-05-11T05:53:37.833Z,15.50
2018-05-11T05:54:37.820Z,15.40
2018-05-11T05:55:37.800Z,15.70
2018-05-11T05:56:37.788Z,15.20
2018-05-11T05:57:37.787Z,15.80
2018-05-11T05:58:37.757Z,15.70
2018-05-11T05:59:37.742Z,15.50
2018-05-11T06:00:37.725Z,15.90
2018-05-11T06:01:37.713Z,16.50
2018-05-11T06:02:37.697Z,16.20
2018-05-11T06:03:37.695Z,16.00
2018-05-11T06:04:37.670Z,15.90
2018-05-11T06:05:37.653Z,15.80
2018-05-11T06:06:37.643Z,15.60
2018-05-11T06:07:37.621Z,15.60
2018-05-11T06:08:37.622Z,15.20
2018-05-11T06:09:37.622Z,14.80
2018-05-11T06:10:37.578Z,14.80
2018-05-11T06:11:37.562Z,15.30
2018-05-11T06:12:37.546Z,15.20
2018-05-11T06:13:37.532Z,14.90
2018-05-11T06:14:37.531Z,14.90
2018-05-11T06:15:37.550Z,15.20
2018-05-11T06:16:37.487Z,15.20
2018-05-11T06:17:37.529Z,15.30
2018-05-11T06:18:37.455Z,14.80
2018-05-11T06:19:37.463Z,16.00
2018-05-11T06:20:37.427Z,15.30
2018-05-11T06:21:37.410Z,14.90
2018-05-11T06:22:37.403Z,14.80
2018-05-11T06:23:37.385Z,14.30
2018-05-11T06:24:37.365Z,14.30
2018-05-11T06:25:37.365Z,13.90
2018-05-11T06:26:37.334Z,13.80
2018-05-11T06:27:37.320Z,13.60
2018-05-11T06:28:37.307Z,13.80
2018-05-11T06:29:37.292Z,14.10
2018-05-11T06:30:37.303Z,14.70
2018-05-11T06:31:37.277Z,14.50
2018-05-11T06:32:37.263Z,13.70
2018-05-11T06:33:37.234Z,13.60
2018-05-11T06:34:37.254Z,14.30
2018-05-11T06:35:37.207Z,13.60
2018-05-11T06:36:37.217Z,14.20
2018-05-11T06:37:37.175Z,14.00
2018-05-11T06:38:37.162Z,14.90
2018-05-11T06:39:37.145Z,14.10
2018-05-11T06:40:37.210Z,14.70
2018-05-11T06:41:37.119Z,14.50
2018-05-11T06:42:37.119Z,14.10
2018-05-11T06:43:37.884Z,14.20
2018-05-11T06:44:37.076Z,14.50
2018-05-11T06:45:37.849Z,14.10
2018-05-11T06:46:37.047Z,14.00
2018-05-11T06:47:37.048Z,14.70
2018-05-11T06:48:37.019Z,14.60
2018-05-11T06:49:37.002Z,14.30
2018-05-11T06:50:36.986Z,14.80
2018-05-11T06:51:36.975Z,14.30
2018-05-11T06:52:36.958Z,14.50
2018-05-11T06:53:36.957Z,14.40
2018-05-11T06:54:36.933Z,14.60
2018-05-11T06:55:36.913Z,14.10
2018-05-11T06:56:36.904Z,14.30
2018-05-11T06:57:36.907Z,14.80
2018-05-11T06:58:36.876Z,14.70
2018-05-11T06:59:36.869Z,14.20
2018-05-11T07:00:36.844Z,15.10
2018-05-11T07:01:36.840Z,14.60
2018-05-11T07:02:36.828Z,14.80
2018-05-11T07:03:36.820Z,14.70
2018-05-11T07:04:36.794Z,14.80
2018-05-11T07:05:36.778Z,15.10
2018-05-11T07:06:36.764Z,14.60
2018-05-11T07:07:36.763Z,14.50
2018-05-11T07:08:36.759Z,13.70
2018-05-11T07:09:36.723Z,13.70
2018-05-11T07:10:36.796Z,13.40
2018-05-11T07:11:36.691Z,13.50
2018-05-11T07:12:36.680Z,14.40
2018-05-11T07:13:36.672Z,14.70
2018-05-11T07:14:36.667Z,14.30
2018-05-11T07:15:36.638Z,14.70
2018-05-11T07:16:36.625Z,14.30
2018-05-11T07:17:36.616Z,14.00
2018-05-11T07:18:36.603Z,13.70
2018-05-11T07:19:36.605Z,14.20
2018-05-11T07:20:36.579Z,13.60
2018-05-11T07:21:36.565Z,13.90
2018-05-11T07:22:36.568Z,14.40
2018-05-11T07:23:36.538Z,13.70
2018-05-11T07:24:36.526Z,14.20
2018-05-11T07:25:36.511Z,14.30
2018-05-11T07:26:36.497Z,14.10
2018-05-11T07:27:36.485Z,14.90
2018-05-11T07:28:36.483Z,14.30
2018-05-11T07:29:36.457Z,14.80
2018-05-11T07:30:36.447Z,14.70
2018-05-11T07:31:36.446Z,14.80
2018-05-11T07:32:36.433Z,15.60
2018-05-11T07:33:36.404Z,15.70
2018-05-11T07:34:36.392Z,15.40
2018-05-11T07:35:36.375Z,15.10
2018-05-11T07:36:36.375Z,15.20
2018-05-11T07:37:36.351Z,15.50
2018-05-11T07:38:36.336Z,15.90
2018-05-11T07:39:36.341Z,15.10
2018-05-11T07:40:36.314Z,15.80
2018-05-11T07:41:36.301Z,16.70
2018-05-11T07:42:36.289Z,16.50
2018-05-11T07:43:36.272Z,17.50
2018-05-11T07:44:36.279Z,16.90
2018-05-11T07:45:36.247Z,17.80
2018-05-11T07:46:36.234Z,18.00
2018-05-11T07:47:36.224Z,17.20
2018-05-11T07:48:36.224Z,17.90
2018-05-11T07:49:36.197Z,17.70
2018-05-11T07:50:36.190Z,18.80
2018-05-11T07:51:36.187Z,17.90
2018-05-11T07:52:36.156Z,17.80
2018-05-11T07:53:36.160Z,17.20
2018-05-11T07:54:36.146Z,18.70
2018-05-11T07:55:36.118Z,18.20
2018-05-11T07:56:36.113Z,18.10
2018-05-11T07:57:36.098Z,17.90
2018-05-11T07:58:36.099Z,17.90
2018-05-11T07:59:36.069Z,17.90
2018-05-11T08:00:36.057Z,18.80
2018-05-11T08:01:36.046Z,18.80
2018-05-11T08:02:36.032Z,18.70
2018-05-11T08:03:36.022Z,17.50
2018-05-11T08:04:36.027Z,17.10
2018-05-11T08:05:35.998Z,15.70
2018-05-11T08:06:35.987Z,17.70
2018-05-11T08:07:35.970Z,15.80
2018-05-11T08:08:35.959Z,15.00
2018-05-11T08:09:35.947Z,16.30
2018-05-11T08:10:35.954Z,16.60
2018-05-11T08:11:35.923Z,16.80
2018-05-11T08:12:35.911Z,16.80
2018-05-11T08:13:35.902Z,16.80
2018-05-11T08:14:35.942Z,16.90
2018-05-11T08:15:35.878Z,17.10
2018-05-11T08:16:35.886Z,16.30
2018-05-11T08:17:35.854Z,16.70
2018-05-11T08:18:35.841Z,16.80
2018-05-11T08:19:35.828Z,17.60
2018-05-11T08:20:35.831Z,18.30
2018-05-11T08:21:35.805Z,18.00
2018-05-11T08:22:35.798Z,17.50
2018-05-11T08:23:35.783Z,17.50
2018-05-11T08:24:35.789Z,17.20
2018-05-11T08:25:35.759Z,17.50
2018-05-11T08:26:35.829Z,17.00
2018-05-11T08:27:35.753Z,17.60
2018-05-11T08:28:35.725Z,16.00
2018-05-11T08:29:35.721Z,16.10
2018-05-11T08:30:35.717Z,17.40
2018-05-11T08:31:35.690Z,16.70
2018-05-11T08:32:35.681Z,17.00
2018-05-11T08:33:35.684Z,17.20
2018-05-11T08:34:35.659Z,16.40
2018-05-11T08:35:35.646Z,16.00
2018-05-11T08:36:35.658Z,16.50
2018-05-11T08:37:35.627Z,15.40
2018-05-11T08:38:35.613Z,16.40
2018-05-11T08:39:35.602Z,16.90
2018-05-11T08:40:35.592Z,16.90
2018-05-11T08:41:35.595Z,15.90
2018-05-11T08:42:35.571Z,16.10
2018-05-11T08:43:35.558Z,15.60
2018-05-11T08:44:35.550Z,16.60
2018-05-11T08:45:35.557Z,15.70
2018-05-11T08:46:35.530Z,16.20
2018-05-11T08:47:35.518Z,15.80
2018-05-11T08:48:35.507Z,17.20
2018-05-11T08:49:35.501Z,16.50
2018-05-11T08:50:35.502Z,16.40
2018-05-11T08:51:35.473Z,16.70
2018-05-11T08:52:35.462Z,16.90
2018-05-11T08:53:35.450Z,16.80
2018-05-11T08:54:35.442Z,18.60
2018-05-11T08:55:35.430Z,17.30
2018-05-11T08:56:35.436Z,17.00
2018-05-11T08:57:35.408Z,15.50
2018-05-11T08:58:35.405Z,15.30
2018-05-11T08:59:35.385Z,14.80
2018-05-11T09:00:35.374Z,16.10
2018-05-11T09:01:35.365Z,15.70
2018-05-11T09:02:35.371Z,16.40
2018-05-11T09:03:35.340Z,16.40
2018-05-11T09:04:35.335Z,15.80
2018-05-11T09:05:35.323Z,16.00
2018-05-11T09:06:35.312Z,15.40
2018-05-11T09:07:35.301Z,16.40
2018-05-11T09:08:35.349Z,15.30
2018-05-11T09:09:35.281Z,16.10
2018-05-11T09:10:35.272Z,15.50
2018-05-11T09:11:35.260Z,15.30
2018-05-11T09:12:35.281Z,16.80
2018-05-11T09:13:35.240Z,17.50
2018-05-11T09:14:35.231Z,17.10
2018-05-11T09:15:35.217Z,16.10
2018-05-11T09:16:35.223Z,16.80
2018-05-11T09:17:35.196Z,16.00
2018-05-11T09:18:35.201Z,16.90
2018-05-11T09:19:35.175Z,16.20
2018-05-11T09:20:35.166Z,14.90
2018-05-11T09:21:35.159Z,14.50
2018-05-11T09:22:35.142Z,14.30
2018-05-11T09:23:35.149Z,14.70
2018-05-11T09:24:35.127Z,14.30
2018-05-11T09:25:35.117Z,13.70
2018-05-11T09:26:35.107Z,13.80
2018-05-11T09:27:35.111Z,14.00
2018-05-11T09:28:35.097Z,14.60
2018-05-11T09:29:35.079Z,13.60
2018-05-11T09:30:35.069Z,13.80
2018-05-11T09:31:35.074Z,14.80
2018-05-11T09:32:35.064Z,13.40
2018-05-11T09:33:35.044Z,13.60
2018-05-11T09:34:35.045Z,13.70
2018-05-11T09:35:35.025Z,13.90
2018-05-11T09:36:35.015Z,14.60
2018-05-11T09:37:35.024Z,14.50
2018-05-11T09:38:34.998Z,14.90
2018-05-11T09:39:35.100Z,14.50
2018-05-11T09:40:34.996Z,15.00
2018-05-11T09:41:34.977Z,15.10
2018-05-11T09:42:34.969Z,15.10
2018-05-11T09:43:34.962Z,14.60
2018-05-11T09:44:34.951Z,14.40
2018-05-11T09:45:34.947Z,14.50
2018-05-11T09:46:34.957Z,14.50
2018-05-11T09:47:34.935Z,14.00
2018-05-11T09:48:34.928Z,14.30
2018-05-11T09:49:35.034Z,13.50
2018-05-11T09:50:34.916Z,13.40
2018-05-11T09:51:34.925Z,14.30
2018-05-11T09:52:34.905Z,13.90
2018-05-11T09:53:34.896Z,14.90
2018-05-11T09:54:34.889Z,14.90
2018-05-11T09:55:34.901Z,15.30
2018-05-11T09:56:34.880Z,14.90
2018-05-11T09:57:34.872Z,14.70
2018-05-11T09:58:34.866Z,14.40
2018-05-11T09:59:34.861Z,13.10
2018-05-11T10:02:20.816Z,13.20
2018-05-11T10:03:24.636Z,12.80
2018-05-11T10:04:28.124Z,14.00
2018-05-11T10:05:19.844Z,13.40
2018-05-11T10:06:20.770Z,12.70
2018-05-11T10:07:25.175Z,13.20
2018-05-11T10:08:20.305Z,12.80
2018-05-11T10:09:19.356Z,12.90
2018-05-11T10:10:22.049Z,13.20
2018-05-11T10:11:18.838Z,12.30
2018-05-11T10:12:19.252Z,12.00
2018-05-11T10:13:19.842Z,11.50
2018-05-11T10:14:18.667Z,12.50
2018-05-11T10:15:29.632Z,11.60
2018-05-11T10:16:26.777Z,11.60
2018-05-11T10:17:18.668Z,12.20
2018-05-11T10:18:18.654Z,11.60
2018-05-11T10:19:45.930Z,11.70
2018-05-11T10:20:21.290Z,11.60
2018-05-11T10:21:22.072Z,12.40
2018-05-11T10:22:20.538Z,12.50
2018-05-11T10:23:23.096Z,11.90
2018-05-11T10:24:24.630Z,11.40
2018-05-11T10:25:18.690Z,12.00
2018-05-11T10:26:21.282Z,11.90
2018-05-11T10:27:18.815Z,11.20
2018-05-11T10:28:20.143Z,11.00
2018-05-11T10:29:26.295Z,11.00
2018-05-11T10:30:19.405Z,11.60
2018-05-11T10:31:24.797Z,10.70
2018-05-11T10:32:18.948Z,10.60
2018-05-11T10:33:18.631Z,10.80
2018-05-11T10:34:24.686Z,11.10
2018-05-11T10:35:28.190Z,10.50
2018-05-11T10:36:18.628Z,11.00
2018-05-11T10:37:19.557Z,10.40
2018-05-11T10:38:18.621Z,11.40
2018-05-11T10:39:23.223Z,11.40
2018-05-11T10:40:18.637Z,11.10
2018-05-11T10:41:18.794Z,10.60
2018-05-11T10:42:23.571Z,10.40
2018-05-11T10:43:18.606Z,11.50
2018-05-11T10:44:18.611Z,10.70
2018-05-11T10:45:18.604Z,11.00
2018-05-11T10:46:39.618Z,10.90
2018-05-11T10:47:18.599Z,10.30
2018-05-11T10:48:18.596Z,10.30
2018-05-11T10:49:18.592Z,10.90
2018-05-11T10:50:18.593Z,11.70
2018-05-11T10:51:18.592Z,10.90
2018-05-11T10:52:18.605Z,10.60
2018-05-11T10:53:18.591Z,10.70
2018-05-11T10:54:18.591Z,10.10
2018-05-11T10:55:18.589Z,9.70
2018-05-11T10:56:18.587Z,10.50
2018-05-11T10:57:18.723Z,9.60
2018-05-11T10:58:18.587Z,10.30
2018-05-11T10:59:18.587Z,10.50
2018-05-11T11:00:18.596Z,10.80
2018-05-11T11:01:18.586Z,10.50
2018-05-11T11:02:18.633Z,9.70
2018-05-11T11:03:18.581Z,10.80
2018-05-11T11:04:18.595Z,10.60
2018-05-11T11:05:18.578Z,10.10
2018-05-11T11:06:18.578Z,10.80
2018-05-11T11:07:18.577Z,10.60
2018-05-11T11:08:18.576Z,10.50
2018-05-11T11:09:18.592Z,10.30
2018-05-11T11:10:18.574Z,9.40
2018-05-11T11:11:18.576Z,9.80
2018-05-11T11:12:18.575Z,9.20
2018-05-11T11:13:18.593Z,10.50
2018-05-11T11:14:18.574Z,9.30
2018-05-11T11:15:18.594Z,9.90
2018-05-11T11:16:18.569Z,9.10
2018-05-11T11:17:18.565Z,9.60
2018-05-11T11:18:18.580Z,9.00
2018-05-11T11:19:18.561Z,9.00
2018-05-11T11:20:18.580Z,9.40
2018-05-11T11:21:18.556Z,9.60
2018-05-11T11:22:18.556Z,9.50
2018-05-11T11:23:18.556Z,9.80
2018-05-11T11:24:18.555Z,9.40
2018-05-11T11:25:18.573Z,9.80
2018-05-11T11:26:18.628Z,9.70
2018-05-11T11:27:18.547Z,9.90
2018-05-11T11:28:18.553Z,9.80
2018-05-11T11:29:18.547Z,9.90
2018-05-11T11:30:18.558Z,9.40
2018-05-11T11:31:18.543Z,8.70
2018-05-11T11:32:18.539Z,9.40
2018-05-11T11:33:18.547Z,9.30
2018-05-11T11:34:18.577Z,9.10
2018-05-11T11:35:18.550Z,8.80
2018-05-11T11:36:18.543Z,9.20
2018-05-11T11:37:18.551Z,8.90
2018-05-11T11:38:18.537Z,9.20
2018-05-11T11:39:18.534Z,9.70
2018-05-11T11:40:18.537Z,9.60
2018-05-11T11:41:18.554Z,9.50
2018-05-11T11:42:18.564Z,9.40
2018-05-11T11:43:18.534Z,9.70
2018-05-11T11:44:18.533Z,9.60
2018-05-11T11:45:18.535Z,9.70
2018-05-11T11:46:18.534Z,9.90
2018-05-11T11:47:18.552Z,9.80
2018-05-11T11:48:18.532Z,9.20
2018-05-11T11:49:18.533Z,9.30
2018-05-11T11:50:18.532Z,9.00
2018-05-11T11:51:18.548Z,9.10
2018-05-11T11:52:18.546Z,8.90
2018-05-11T11:53:18.534Z,8.60
2018-05-11T11:54:18.534Z,8.90
2018-05-11T11:55:18.531Z,8.90
2018-05-11T11:56:18.535Z,8.70
2018-05-11T11:57:18.552Z,8.10
2018-05-11T11:58:18.534Z,8.70
2018-05-11T11:59:18.538Z,8.30
2018-05-11T12:00:18.538Z,8.50
2018-05-11T12:01:18.536Z,8.30
2018-05-11T12:02:18.539Z,8.80
2018-05-11T12:03:18.555Z,8.90
2018-05-11T12:04:18.538Z,8.00
2018-05-11T12:05:18.539Z,7.70
2018-05-11T12:06:18.539Z,8.10
2018-05-11T12:07:18.539Z,8.00
2018-05-11T12:08:18.541Z,7.90
2018-05-11T12:09:18.559Z,8.10
2018-05-11T12:10:18.544Z,8.00
2018-05-11T12:11:18.542Z,8.40
2018-05-11T12:12:18.542Z,7.50
2018-05-11T12:13:18.541Z,7.90
2018-05-11T12:14:18.570Z,7.10
2018-05-11T12:15:18.541Z,6.80
2018-05-11T12:16:18.548Z,7.20
2018-05-11T12:17:18.544Z,7.30
2018-05-11T12:18:18.544Z,7.30
2018-05-11T12:19:18.549Z,7.60
2018-05-11T12:20:18.589Z,7.00
2018-05-11T12:21:18.545Z,6.80
2018-05-11T12:22:18.547Z,7.00
2018-05-11T12:23:18.549Z,6.50
2018-05-11T12:24:18.545Z,6.80
2018-05-11T12:25:18.564Z,6.10
2018-05-11T12:26:18.611Z,6.10
2018-05-11T12:27:18.568Z,6.90
2018-05-11T12:28:18.549Z,6.60
2018-05-11T12:29:18.549Z,6.40
2018-05-11T12:30:18.562Z,6.70
2018-05-11T12:31:18.553Z,6.20
2018-05-11T12:32:18.551Z,5.60
2018-05-11T12:33:18.551Z,6.00
2018-05-11T12:34:18.554Z,5.80
2018-05-11T12:35:18.567Z,5.00
2018-05-11T12:36:19.199Z,5.50
2018-05-11T12:37:18.549Z,5.10
2018-05-11T12:38:18.547Z,5.00
2018-05-11T12:39:18.553Z,5.00
2018-05-11T12:40:18.554Z,4.90
2018-05-11T12:41:18.567Z,4.60
2018-05-11T12:42:18.543Z,5.00
2018-05-11T12:43:18.548Z,5.00
2018-05-11T12:44:18.545Z,4.80
2018-05-11T12:45:18.549Z,5.00
2018-05-11T12:46:18.542Z,4.60
2018-05-11T12:47:18.565Z,4.70
2018-05-11T12:48:18.548Z,4.40
2018-05-11T12:49:18.547Z,4.20
2018-05-11T12:50:18.545Z,4.70
2018-05-11T12:51:18.552Z,4.80
2018-05-11T12:52:18.558Z,4.70
2018-05-11T12:53:18.560Z,5.20
2018-05-11T12:54:18.548Z,4.50
2018-05-11T12:55:18.551Z,4.70
2018-05-11T12:56:18.555Z,4.70
2018-05-11T12:57:18.560Z,4.90
2018-05-11T12:58:18.540Z,4.20
2018-05-11T12:59:18.556Z,3.70
2018-05-11T13:00:18.539Z,4.30
2018-05-11T13:01:18.541Z,4.00
2018-05-11T13:02:18.534Z,3.80
2018-05-11T13:03:18.532Z,3.50